Time;durP1;ratioP1;P1;durP2;ratioP2;P2;SDS_P1;SDS_P2;PMS_P1;PMS_P2;Temp;Humidity;BMP_temperature;BMP_pressure;BME280_temperature;BME280_humidity;BME280_pressure;Samples;Min_cycle;Max_cycle;Signal;HPM_P1;HPM_P2
2023/05/17 00:01:34;;;;;;;;;;;;;;;;;;5114301;28;20381;-71
2023/05/17 00:04:00;;;;;;;;;;;;;;;;;;5114317;28;19955;-69
2023/05/17 00:06:26;;;;;;;;;;;;;;;;;;5114547;28;19962;-70
2023/05/17 00:08:52;;;;;;;;;;;;;;;;;;5095749;28;19958;-70
2023/05/17 00:11:18;;;;;;;;;;;;;;;;;;5114123;28;19962;-70
2023/05/17 00:13:44;;;;;;;;;;;;;;;;;;5114758;28;20041;-70
2023/05/17 00:16:10;;;;;;;;;;;;;;;;;;5114925;28;19955;-70
2023/05/17 00:18:36;;;;;;;;;;;;;;;;;;5114025;28;20018;-69
2023/05/17 00:21:01;;;;;;;;;;;;;;;;;;5114076;28;20468;-70
2023/05/17 00:23:27;;;;;;;;;;;;;;;;;;5114085;28;19962;-71
2023/05/17 00:25:53;;;;;;;;;;;;;;;;;;5114589;28;20400;-70
2023/05/17 00:28:19;;;;;;;;;;;;;;;;;;5114026;28;19955;-70
2023/05/17 00:30:45;;;;;;;;;;;;;;;;;;5113948;28;19971;-70
2023/05/17 00:33:11;;;;;;;;;;;;;;;;;;5113938;28;20008;-70
2023/05/17 00:35:37;;;;;;;;;;;;;;;;;;5113948;28;20364;-70
2023/05/17 00:38:03;;;;;;;;;;;;;;;;;;5113853;28;19982;-70
2023/05/17 00:40:29;;;;;;;;;;;;;;;;;;5113707;28;20053;-70
2023/05/17 00:42:55;;;;;;;;;;;;;;;;;;5113885;28;19983;-70
2023/05/17 00:45:21;;;;;;;;;;;;;;;;;;5113870;28;20332;-71
2023/05/17 00:47:47;;;;;;;;;;;;;;;;;;5114094;28;20055;-71
2023/05/17 00:50:12;;;;;;;;;;;;;;;;;;5113820;28;19992;-70
2023/05/17 00:52:38;;;;;;;;;;;;;;;;;;5113743;28;19959;-71
2023/05/17 00:55:04;;;;;;;;;;;;;;;;;;5113772;28;19955;-70
2023/05/17 00:57:31;;;;;;;;;;;;;;;;;;5113733;28;19954;-70
2023/05/17 00:59:56;;;;;;;;;;;;;;;;;;5114177;28;20341;-69
2023/05/17 01:02:22;;;;;;;;;;;;;;;;;;5113677;28;19981;-69
2023/05/17 01:04:48;;;;;;;;;;;;;;;;;;5113654;28;19959;-69
2023/05/17 01:07:16;;;;;;;;;;;;;;;;;;5113900;28;19962;-70
2023/05/17 01:09:42;;;;;;;;;;;;;;;;;;5095161;28;20042;-69
2023/05/17 01:12:08;;;;;;;;;;;;;;;;;;5113614;28;20456;-69
2023/05/17 01:14:34;;;;;;;;;;;;;;;;;;5113578;28;20041;-69
2023/05/17 01:17:00;;;;;;;;;;;;;;;;;;5114402;28;19954;-70
2023/05/17 01:19:25;;;;;;;;;;;;;;;;;;5113452;28;20515;-70
2023/05/17 01:21:51;;;;;;;;;;;;;;;;;;5113871;28;19961;-70
2023/05/17 01:24:17;;;;;;;;;;;;;;;;;;5117867;28;20399;-70
2023/05/17 01:26:43;;;;;;;;;;;;;;;;;;5117563;28;19955;-70
2023/05/17 01:29:09;;;;;;;;;;;;;;;;;;5117205;28;19984;-69
2023/05/17 01:31:35;;;;;;;;;;;;;;;;;;5117354;28;20062;-70
2023/05/17 01:34:01;;;;;;;;;;;;;;;;;;5117111;28;19955;-70
2023/05/17 01:36:27;;;;;;;;;;;;;;;;;;5117336;28;20004;-70
2023/05/17 01:38:53;;;;;;;;;;;;;;;;;;5116746;28;19978;-69
2023/05/17 01:41:19;;;;;;;;;;;;;;;;;;5117288;28;19984;-69
2023/05/17 01:43:44;;;;;;;;;;;;;;;;;;5116941;28;19955;-70
2023/05/17 01:46:10;;;;;;;;;;;;;;;;;;5117461;28;19955;-69
2023/05/17 01:48:36;;;;;;;;;;;;;;;;;;5116851;28;19955;-68
2023/05/17 01:51:02;;;;;;;;;;;;;;;;;;5116821;28;20416;-70
2023/05/17 01:53:28;;;;;;;;;;;;;;;;;;5117063;28;19962;-69
2023/05/17 01:55:54;;;;;;;;;;;;;;;;;;5116682;28;19955;-70
2023/05/17 01:58:23;;;;;;;;;;;;;;;;;;5116612;28;19974;-69
2023/05/17 02:00:49;;;;;;;;;;;;;;;;;;5117157;28;20461;-69
2023/05/17 02:03:15;;;;;;;;;;;;;;;;;;5116561;28;19955;-70
2023/05/17 02:05:41;;;;;;;;;;;;;;;;;;5116471;28;20001;-70
2023/05/17 02:08:07;;;;;;;;;;;;;;;;;;5116440;28;19962;-70
2023/05/17 02:10:33;;;;;;;;;;;;;;;;;;5098061;28;19962;-70
2023/05/17 02:12:59;;;;;;;;;;;;;;;;;;5116390;28;19959;-69
2023/05/17 02:15:25;;;;;;;;;;;;;;;;;;5116626;28;19990;-69
2023/05/17 02:17:50;;;;;;;;;;;;;;;;;;5117001;28;20350;-69
2023/05/17 02:20:16;;;;;;;;;;;;;;;;;;5116836;28;19986;-69
2023/05/17 02:22:42;;;;;;;;;;;;;;;;;;5116455;28;19994;-69
2023/05/17 02:25:08;;;;;;;;;;;;;;;;;;5116424;28;20118;-69
2023/05/17 02:27:34;;;;;;;;;;;;;;;;;;5097814;28;19958;-70
2023/05/17 02:30:00;;;;;;;;;;;;;;;;;;5116603;28;20091;-70
2023/05/17 02:32:26;;;;;;;;;;;;;;;;;;5115933;28;20405;-69
2023/05/17 02:34:52;;;;;;;;;;;;;;;;;;5114723;28;19962;-70
2023/05/17 02:37:18;;;;;;;;;;;;;;;;;;5116451;28;20392;-70
2023/05/17 02:39:44;;;;;;;;;;;;;;;;;;5115731;28;20035;-70
2023/05/17 02:42:10;;;;;;;;;;;;;;;;;;5115795;28;20004;-69
2023/05/17 02:44:36;;;;;;;;;;;;;;;;;;5115749;28;20324;-71
2023/05/17 02:47:02;;;;;;;;;;;;;;;;;;5115682;28;19955;-71
2023/05/17 02:49:27;;;;;;;;;;;;;;;;;;5115888;28;19954;-70
2023/05/17 02:51:53;;;;;;;;;;;;;;;;;;5115891;28;20001;-69
2023/05/17 02:54:19;;;;;;;;;;;;;;;;;;5115568;28;20042;-70
2023/05/17 02:56:45;;;;;;;;;;;;;;;;;;5116060;28;20323;-69
2023/05/17 02:59:11;;;;;;;;;;;;;;;;;;5115380;28;19974;-70
2023/05/17 03:01:37;;;;;;;;;;;;;;;;;;5115697;28;19955;-71
2023/05/17 03:04:03;;;;;;;;;;;;;;;;;;5115368;28;20004;-71
2023/05/17 03:06:30;;;;;;;;;;;;;;;;;;5115343;28;19994;-69
2023/05/17 03:08:56;;;;;;;;;;;;;;;;;;5096994;28;20317;-69
2023/05/17 03:11:21;;;;;;;;;;;;;;;;;;5115213;28;20007;-69
2023/05/17 03:13:50;;;;;;;;;;;;;;;;;;5115438;28;19954;-70
2023/05/17 03:16:17;;;;;;;;;;;;;;;;;;5115666;28;20324;-69
2023/05/17 03:18:43;;;;;;;;;;;;;;;;;;5096536;28;19978;-70
2023/05/17 03:21:09;;;;;;;;;;;;;;;;;;5115308;28;20013;-70
2023/05/17 03:23:35;;;;;;;;;;;;;;;;;;5115231;28;20445;-70
2023/05/17 03:26:01;;;;;;;;;;;;;;;;;;5115526;28;19955;-70
2023/05/17 03:28:27;;;;;;;;;;;;;;;;;;5114876;28;20306;-70
2023/05/17 03:30:52;;;;;;;;;;;;;;;;;;5114785;28;19971;-70
2023/05/17 03:33:18;;;;;;;;;;;;;;;;;;5115406;28;20469;-70
2023/05/17 03:35:45;;;;;;;;;;;;;;;;;;5114803;28;19955;-69
2023/05/17 03:38:11;;;;;;;;;;;;;;;;;;5114998;28;20010;-70
2023/05/17 03:40:37;;;;;;;;;;;;;;;;;;5114484;28;20059;-70
2023/05/17 03:43:03;;;;;;;;;;;;;;;;;;5115240;28;20388;-70
2023/05/17 03:45:29;;;;;;;;;;;;;;;;;;5114537;28;19990;-71
2023/05/17 03:47:55;;;;;;;;;;;;;;;;;;5114578;28;20331;-70
2023/05/17 03:50:21;;;;;;;;;;;;;;;;;;5114773;28;19955;-70
2023/05/17 03:52:47;;;;;;;;;;;;;;;;;;5114482;28;19955;-69
2023/05/17 03:55:13;;;;;;;;;;;;;;;;;;5114455;28;20045;-70
2023/05/17 03:57:39;;;;;;;;;;;;;;;;;;5114416;28;20003;-70
2023/05/17 04:00:11;;;;;;;;;;;;;;;;;;5114603;28;19979;-70
2023/05/17 04:02:37;;;;;;;;;;;;;;;;;;5114668;28;19969;-69
2023/05/17 04:05:02;;;;;;;;;;;;;;;;;;5114880;28;19955;-70
2023/05/17 04:07:28;;;;;;;;;;;;;;;;;;5114251;28;19966;-70
2023/05/17 04:09:57;;;;;;;;;;;;;;;;;;5114193;28;19997;-70
2023/05/17 04:12:23;;;;;;;;;;;;;;;;;;5096866;28;19959;-69
2023/05/17 04:14:49;;;;;;;;;;;;;;;;;;5114190;28;19966;-70
2023/05/17 04:17:16;;;;;;;;;;;;;;;;;;5114964;28;19955;-70
2023/05/17 04:19:42;;;;;;;;;;;;;;;;;;5114068;28;19981;-70
2023/05/17 04:22:08;;;;;;;;;;;;;;;;;;5114054;28;20049;-70
2023/05/17 04:24:34;;;;;;;;;;;;;;;;;;5114102;28;19955;-69
2023/05/17 04:27:00;;;;;;;;;;;;;;;;;;5114619;28;19955;-70
2023/05/17 04:29:25;;;;;;;;;;;;;;;;;;5114051;28;19955;-69
2023/05/17 04:31:51;;;;;;;;;;;;;;;;;;5113971;28;19971;-70
2023/05/17 04:34:17;;;;;;;;;;;;;;;;;;5095679;28;19966;-70
2023/05/17 04:36:43;;;;;;;;;;;;;;;;;;5114520;28;19958;-69
2023/05/17 04:39:09;;;;;;;;;;;;;;;;;;5095414;28;20512;-69
2023/05/17 04:41:35;;;;;;;;;;;;;;;;;;5114226;28;19955;-70
2023/05/17 04:44:01;;;;;;;;;;;;;;;;;;5114156;28;20417;-70
2023/05/17 04:46:27;;;;;;;;;;;;;;;;;;5114450;28;19980;-71
2023/05/17 04:48:54;;;;;;;;;;;;;;;;;;5113891;28;20392;-70
2023/05/17 04:51:20;;;;;;;;;;;;;;;;;;5113851;28;19958;-70
2023/05/17 04:53:46;;;;;;;;;;;;;;;;;;5114124;28;19955;-71
2023/05/17 04:56:13;;;;;;;;;;;;;;;;;;5113766;28;20462;-70
2023/05/17 04:58:39;;;;;;;;;;;;;;;;;;5098616;28;20077;-70
2023/05/17 05:01:05;;;;;;;;;;;;;;;;;;5118375;28;19959;-70
2023/05/17 05:03:31;;;;;;;;;;;;;;;;;;5117989;28;20004;-69
2023/05/17 05:05:57;;;;;;;;;;;;;;;;;;5117702;28;19962;-69
2023/05/17 05:08:23;;;;;;;;;;;;;;;;;;5117639;28;20542;-69
2023/05/17 05:10:50;;;;;;;;;;;;;;;;;;5117606;28;19959;-70
2023/05/17 05:13:16;;;;;;;;;;;;;;;;;;5117862;28;20442;-69
2023/05/17 05:15:42;;;;;;;;;;;;;;;;;;5117481;28;19955;-70
2023/05/17 05:18:07;;;;;;;;;;;;;;;;;;5117886;28;19980;-69
2023/05/17 05:20:33;;;;;;;;;;;;;;;;;;5117374;28;20004;-70
2023/05/17 05:22:59;;;;;;;;;;;;;;;;;;5117613;28;19966;-70
2023/05/17 05:25:25;;;;;;;;;;;;;;;;;;5117587;28;20020;-70
2023/05/17 05:27:51;;;;;;;;;;;;;;;;;;5117543;28;20408;-69
2023/05/17 05:30:20;;;;;;;;;;;;;;;;;;5117224;28;19954;-70
2023/05/17 05:32:47;;;;;;;;;;;;;;;;;;5117741;28;19955;-70
2023/05/17 05:35:13;;;;;;;;;;;;;;;;;;5117117;28;19955;-69
2023/05/17 05:37:38;;;;;;;;;;;;;;;;;;5117094;28;20011;-71
2023/05/17 05:40:04;;;;;;;;;;;;;;;;;;5116789;28;20467;-70
2023/05/17 05:42:30;;;;;;;;;;;;;;;;;;5117296;28;19962;-69
2023/05/17 05:44:56;;;;;;;;;;;;;;;;;;5116925;28;20485;-69
2023/05/17 05:47:23;;;;;;;;;;;;;;;;;;5117150;28;19990;-70
2023/05/17 05:49:49;;;;;;;;;;;;;;;;;;5098326;28;19970;-69
2023/05/17 05:52:15;;;;;;;;;;;;;;;;;;5117090;28;19955;-69
2023/05/17 05:54:41;;;;;;;;;;;;;;;;;;5116728;28;20428;-71
2023/05/17 05:57:07;;;;;;;;;;;;;;;;;;5116708;28;20041;-69
2023/05/17 05:59:33;;;;;;;;;;;;;;;;;;5098060;28;20558;-70
2023/05/17 06:01:58;;;;;;;;;;;;;;;;;;5117120;28;20002;-71
2023/05/17 06:04:25;;;;;;;;;;;;;;;;;;5116581;28;19959;-70
2023/05/17 06:06:51;;;;;;;;;;;;;;;;;;5117103;28;19955;-71
2023/05/17 06:09:17;;;;;;;;;;;;;;;;;;5116477;28;20042;-70
2023/05/17 06:11:43;;;;;;;;;;;;;;;;;;5116459;28;20003;-71
2023/05/17 06:14:10;;;;;;;;;;;;;;;;;;5116907;28;20400;-71
2023/05/17 06:16:35;;;;;;;;;;;;;;;;;;5116852;28;20038;-71
2023/05/17 06:19:01;;;;;;;;;;;;;;;;;;5116178;28;20113;-71
2023/05/17 06:21:27;;;;;;;;;;;;;;;;;;5116505;28;20003;-71
2023/05/17 06:23:53;;;;;;;;;;;;;;;;;;5116153;28;20434;-71
2023/05/17 06:26:19;;;;;;;;;;;;;;;;;;5116156;28;19959;-70
2023/05/17 06:28:45;;;;;;;;;;;;;;;;;;5116084;28;19954;-71
2023/05/17 06:31:11;;;;;;;;;;;;;;;;;;5116263;28;19978;-71
2023/05/17 06:33:37;;;;;;;;;;;;;;;;;;5116283;28;20041;-71
2023/05/17 06:36:04;;;;;;;;;;;;;;;;;;5115973;28;19955;-72
2023/05/17 06:38:30;;;;;;;;;;;;;;;;;;5097873;28;19987;-71
2023/05/17 06:40:57;;;;;;;;;;;;;;;;;;5115487;28;20048;-72
2023/05/17 06:43:23;;;;;;;;;;;;;;;;;;5098369;28;20411;-72
2023/05/17 06:45:49;;;;;;;;;;;;;;;;;;5115741;28;19988;-70
2023/05/17 06:48:15;;;;;;;;;;;;;;;;;;5115739;28;19962;-72
2023/05/17 06:50:40;;;;;;;;;;;;;;;;;;5115942;28;19962;-72
2023/05/17 06:53:06;;;;;;;;;;;;;;;;;;5115881;28;19954;-71
2023/05/17 06:55:32;;;;;;;;;;;;;;;;;;5115590;28;19962;-71
2023/05/17 06:57:59;;;;;;;;;;;;;;;;;;5115434;28;20429;-70
2023/05/17 07:00:25;;;;;;;;;;;;;;;;;;5115444;28;19955;-72
2023/05/17 07:02:51;;;;;;;;;;;;;;;;;;5115416;28;20027;-72
2023/05/17 07:05:17;;;;;;;;;;;;;;;;;;5115402;28;19961;-72
2023/05/17 07:07:42;;;;;;;;;;;;;;;;;;5115363;28;20053;-72
2023/05/17 07:10:08;;;;;;;;;;;;;;;;;;5115278;28;19961;-73
2023/05/17 07:12:34;;;;;;;;;;;;;;;;;;5115242;28;19955;-72
2023/05/17 07:15:00;;;;;;;;;;;;;;;;;;5115497;28;19955;-71
2023/05/17 07:17:26;;;;;;;;;;;;;;;;;;5115947;28;20414;-71
2023/05/17 07:19:52;;;;;;;;;;;;;;;;;;5114592;28;19975;-71
2023/05/17 07:22:18;;;;;;;;;;;;;;;;;;5114993;28;19962;-72
2023/05/17 07:24:44;;;;;;;;;;;;;;;;;;5115598;28;20042;-72
2023/05/17 07:27:10;;;;;;;;;;;;;;;;;;5114987;28;19981;-71
2023/05/17 07:29:36;;;;;;;;;;;;;;;;;;5115504;28;20388;-72
2023/05/17 07:32:02;;;;;;;;;;;;;;;;;;5115093;28;19978;-73
2023/05/17 07:34:27;;;;;;;;;;;;;;;;;;5114826;28;19980;-72
2023/05/17 07:36:53;;;;;;;;;;;;;;;;;;5114753;28;20332;-71
2023/05/17 07:39:19;;;;;;;;;;;;;;;;;;5114899;28;20359;-71
2023/05/17 07:41:45;;;;;;;;;;;;;;;;;;5115008;28;19969;-73
2023/05/17 07:44:11;;;;;;;;;;;;;;;;;;5114621;28;20038;-72
2023/05/17 07:46:37;;;;;;;;;;;;;;;;;;5114590;28;20319;-72
2023/05/17 07:49:03;;;;;;;;;;;;;;;;;;5114607;28;20004;-71
2023/05/17 07:51:30;;;;;;;;;;;;;;;;;;5115102;28;19994;-72
2023/05/17 07:53:56;;;;;;;;;;;;;;;;;;5114775;28;19962;-72
2023/05/17 07:56:23;;;;;;;;;;;;;;;;;;5114454;28;19955;-72
2023/05/17 07:58:49;;;;;;;;;;;;;;;;;;5114685;28;20031;-73
2023/05/17 08:01:15;;;;;;;;;;;;;;;;;;5114340;28;19962;-71
2023/05/17 08:03:46;;;;;;;;;;;;;;;;;;5114316;28;20408;-72
2023/05/17 08:06:12;;;;;;;;;;;;;;;;;;5115176;28;19962;-72
2023/05/17 08:08:38;;;;;;;;;;;;;;;;;;5114559;28;19955;-72
2023/05/17 08:11:04;;;;;;;;;;;;;;;;;;5114260;28;20371;-72
2023/05/17 08:13:30;;;;;;;;;;;;;;;;;;5114249;28;20024;-72
2023/05/17 08:16:01;;;;;;;;;;;;;;;;;;5114470;28;19955;-73
2023/05/17 08:18:26;;;;;;;;;;;;;;;;;;5114954;28;20321;-73
2023/05/17 08:20:52;;;;;;;;;;;;;;;;;;5114387;28;19977;-72
2023/05/17 08:23:18;;;;;;;;;;;;;;;;;;5114063;28;19962;-72
2023/05/17 08:25:45;;;;;;;;;;;;;;;;;;5114361;28;19990;-71
2023/05/17 08:28:11;;;;;;;;;;;;;;;;;;5114060;28;19955;-72
2023/05/17 08:30:37;;;;;;;;;;;;;;;;;;5113973;28;19954;-73
2023/05/17 08:33:03;;;;;;;;;;;;;;;;;;5118370;28;19966;-71
2023/05/17 08:35:30;;;;;;;;;;;;;;;;;;5118849;28;20428;-71
2023/05/17 08:37:55;;;;;;;;;;;;;;;;;;5118213;28;20336;-72
2023/05/17 08:40:21;;;;;;;;;;;;;;;;;;5099662;28;19995;-73
2023/05/17 08:42:47;;;;;;;;;;;;;;;;;;5118141;28;19955;-73
2023/05/17 08:45:13;;;;;;;;;;;;;;;;;;5118120;28;19955;-72
2023/05/17 08:47:39;;;;;;;;;;;;;;;;;;5118111;28;20411;-73
2023/05/17 08:50:06;;;;;;;;;;;;;;;;;;5118593;28;20472;-72
2023/05/17 08:52:32;;;;;;;;;;;;;;;;;;5099623;28;19958;-72
2023/05/17 08:55:00;;;;;;;;;;;;;;;;;;5118528;28;20013;-71
2023/05/17 08:57:26;;;;;;;;;;;;;;;;;;5117892;28;19955;-72
2023/05/17 08:59:52;;;;;;;;;;;;;;;;;;5117739;28;20436;-72
2023/05/17 09:02:19;;;;;;;;;;;;;;;;;;5117750;28;20041;-72
2023/05/17 09:04:44;;;;;;;;;;;;;;;;;;5118002;28;20397;-71
2023/05/17 09:07:11;;;;;;;;;;;;;;;;;;5117719;28;19955;-71
2023/05/17 09:09:37;;;;;;;;;;;;;;;;;;5118065;28;20319;-72
2023/05/17 09:12:04;;;;;;;;;;;;;;;;;;5117607;28;19955;-72
2023/05/17 09:14:30;;;;;;;;;;;;;;;;;;5117596;28;19965;-72
2023/05/17 09:16:56;;;;;;;;;;;;;;;;;;5118363;28;19955;-72
2023/05/17 09:19:22;;;;;;;;;;;;;;;;;;5099058;28;19979;-72
2023/05/17 09:21:48;;;;;;;;;;;;;;;;;;5117958;28;19968;-73
2023/05/17 09:24:14;;;;;;;;;;;;;;;;;;5117346;28;19955;-72
2023/05/17 09:26:40;;;;;;;;;;;;;;;;;;5117593;28;19977;-72
2023/05/17 09:29:06;;;;;;;;;;;;;;;;;;5117641;28;20004;-72
2023/05/17 09:31:32;;;;;;;;;;;;;;;;;;5117761;28;19970;-71
2023/05/17 09:33:58;;;;;;;;;;;;;;;;;;5117160;28;19958;-71
2023/05/17 09:36:23;;;;;;;;;;;;;;;;;;5117144;28;19962;-72
2023/05/17 09:38:49;;;;;;;;;;;;;;;;;;5117160;28;20024;-72
2023/05/17 09:41:15;;;;;;;;;;;;;;;;;;5117665;28;19955;-72
2023/05/17 09:43:41;;;;;;;;;;;;;;;;;;5116306;28;20003;-70
2023/05/17 09:46:07;;;;;;;;;;;;;;;;;;5116966;28;20420;-70
2023/05/17 09:48:33;;;;;;;;;;;;;;;;;;5116891;28;19955;-71
2023/05/17 09:50:59;;;;;;;;;;;;;;;;;;5116826;28;20440;-72
2023/05/17 09:53:25;;;;;;;;;;;;;;;;;;5117077;28;20042;-71
2023/05/17 09:55:51;;;;;;;;;;;;;;;;;;5116759;28;19955;-72
2023/05/17 09:58:17;;;;;;;;;;;;;;;;;;5116662;28;19981;-71
2023/05/17 10:00:43;;;;;;;;;;;;;;;;;;5116697;28;19954;-72
2023/05/17 10:03:09;;;;;;;;;;;;;;;;;;5116653;28;20428;-73
2023/05/17 10:05:35;;;;;;;;;;;;;;;;;;5116612;28;20045;-71
2023/05/17 10:08:00;;;;;;;;;;;;;;;;;;5098267;28;20384;-70
2023/05/17 10:10:26;;;;;;;;;;;;;;;;;;5116502;28;19961;-74
2023/05/17 10:12:52;;;;;;;;;;;;;;;;;;5116412;28;20317;-71
2023/05/17 10:15:19;;;;;;;;;;;;;;;;;;5116429;28;20008;-73
2023/05/17 10:17:45;;;;;;;;;;;;;;;;;;5098382;28;19963;-72
2023/05/17 10:20:11;;;;;;;;;;;;;;;;;;5116209;28;19975;-73
2023/05/17 10:22:37;;;;;;;;;;;;;;;;;;5116282;28;19962;-71
2023/05/17 10:25:03;;;;;;;;;;;;;;;;;;5116467;28;19953;-73
2023/05/17 10:27:29;;;;;;;;;;;;;;;;;;5116422;28;19954;-72
2023/05/17 10:29:55;;;;;;;;;;;;;;;;;;5116644;28;19955;-71
2023/05/17 10:32:21;;;;;;;;;;;;;;;;;;5115986;28;19971;-72
2023/05/17 10:34:49;;;;;;;;;;;;;;;;;;5116592;28;19955;-73
2023/05/17 10:37:16;;;;;;;;;;;;;;;;;;5097638;28;19965;-73
2023/05/17 10:39:45;;;;;;;;;;;;;;;;;;5097201;28;19994;-72
2023/05/17 10:42:11;;;;;;;;;;;;;;;;;;5115867;28;20038;-72
2023/05/17 10:44:37;;;;;;;;;;;;;;;;;;5116081;28;20384;-73
2023/05/17 10:47:03;;;;;;;;;;;;;;;;;;5115746;28;19955;-71
2023/05/17 10:49:29;;;;;;;;;;;;;;;;;;5116270;28;19955;-72
2023/05/17 10:51:55;;;;;;;;;;;;;;;;;;5115671;28;20028;-73
2023/05/17 10:54:20;;;;;;;;;;;;;;;;;;5115166;28;19955;-72
2023/05/17 10:56:46;;;;;;;;;;;;;;;;;;5115544;28;19980;-73
2023/05/17 10:59:12;;;;;;;;;;;;;;;;;;5116047;28;19981;-72
2023/05/17 11:01:38;;;;;;;;;;;;;;;;;;5115770;28;19954;-72
2023/05/17 11:04:04;;;;;;;;;;;;;;;;;;5115740;28;19994;-73
2023/05/17 11:06:30;;;;;;;;;;;;;;;;;;5115356;28;19960;-71
2023/05/17 11:08:56;;;;;;;;;;;;;;;;;;5115872;28;20400;-72
2023/05/17 11:11:24;;;;;;;;;;;;;;;;;;5115581;28;19955;-71
2023/05/17 11:13:51;;;;;;;;;;;;;;;;;;5115501;28;20357;-71
2023/05/17 11:16:17;;;;;;;;;;;;;;;;;;5115476;28;20053;-71
2023/05/17 11:18:42;;;;;;;;;;;;;;;;;;5116175;28;20066;-72
2023/05/17 11:21:08;;;;;;;;;;;;;;;;;;5115100;28;19962;-73
2023/05/17 11:23:35;;;;;;;;;;;;;;;;;;5115367;28;19955;-71
2023/05/17 11:26:00;;;;;;;;;;;;;;;;;;5115023;28;19955;-72
2023/05/17 11:28:26;;;;;;;;;;;;;;;;;;5096492;28;20007;-71
2023/05/17 11:30:52;;;;;;;;;;;;;;;;;;5114915;28;20433;-73
2023/05/17 11:33:20;;;;;;;;;;;;;;;;;;5115216;28;19955;-71
2023/05/17 11:35:46;;;;;;;;;;;;;;;;;;5114818;28;20465;-72
2023/05/17 11:38:15;;;;;;;;;;;;;;;;;;5115319;28;19955;-72
2023/05/17 11:40:41;;;;;;;;;;;;;;;;;;5114396;28;20440;-72
2023/05/17 11:43:07;;;;;;;;;;;;;;;;;;5115280;28;19964;-72
2023/05/17 11:45:33;;;;;;;;;;;;;;;;;;5114935;28;19955;-71
2023/05/17 11:47:59;;;;;;;;;;;;;;;;;;5114637;28;19962;-71
2023/05/17 11:50:25;;;;;;;;;;;;;;;;;;5114864;28;19955;-72
2023/05/17 11:52:53;;;;;;;;;;;;;;;;;;5114545;28;19962;-72
2023/05/17 11:55:18;;;;;;;;;;;;;;;;;;5115069;28;19977;-72
2023/05/17 11:57:44;;;;;;;;;;;;;;;;;;5114470;28;20408;-71
2023/05/17 12:00:10;;;;;;;;;;;;;;;;;;5114886;28;19974;-73
2023/05/17 12:02:37;;;;;;;;;;;;;;;;;;5114361;28;19955;-74
2023/05/17 12:05:02;;;;;;;;;;;;;;;;;;5114366;28;19955;-74
2023/05/17 12:07:29;;;;;;;;;;;;;;;;;;5114323;28;20045;-75
2023/05/17 12:09:55;;;;;;;;;;;;;;;;;;5114266;28;19962;-75
2023/05/17 12:12:21;;;;;;;;;;;;;;;;;;5095960;28;19967;-74
2023/05/17 12:14:47;;;;;;;;;;;;;;;;;;5114743;28;19955;-75
2023/05/17 12:17:13;;;;;;;;;;;;;;;;;;5114174;28;20430;-76
2023/05/17 12:19:39;;;;;;;;;;;;;;;;;;5096436;28;19979;-75
2023/05/17 12:22:06;;;;;;;;;;;;;;;;;;5095858;28;20053;-75
2023/05/17 12:24:32;;;;;;;;;;;;;;;;;;5114418;28;19990;-76
2023/05/17 12:26:57;;;;;;;;;;;;;;;;;;5114333;28;20440;-76
2023/05/17 12:29:24;;;;;;;;;;;;;;;;;;5114029;28;20038;-75
2023/05/17 12:31:50;;;;;;;;;;;;;;;;;;5114539;28;19982;-76
2023/05/17 12:34:15;;;;;;;;;;;;;;;;;;5114024;28;19955;-76
2023/05/17 12:36:42;;;;;;;;;;;;;;;;;;5114238;28;19980;-74
2023/05/17 12:39:08;;;;;;;;;;;;;;;;;;5113731;28;19991;-75
2023/05/17 12:41:34;;;;;;;;;;;;;;;;;;5095489;28;19958;-74
2023/05/17 12:44:00;;;;;;;;;;;;;;;;;;5114225;28;20039;-78
2023/05/17 12:46:26;;;;;;;;;;;;;;;;;;5113890;28;20328;-77
2023/05/17 12:48:52;;;;;;;;;;;;;;;;;;5114198;28;19955;-77
2023/05/17 12:51:19;;;;;;;;;;;;;;;;;;5113926;28;19959;-79
2023/05/17 12:53:45;;;;;;;;;;;;;;;;;;5095667;28;19959;-78
2023/05/17 12:56:11;;;;;;;;;;;;;;;;;;5095559;28;19965;-77
2023/05/17 12:58:37;;;;;;;;;;;;;;;;;;5095265;28;19978;-78
2023/05/17 13:01:05;;;;;;;;;;;;;;;;;;5113757;28;19955;-76
2023/05/17 13:03:31;;;;;;;;;;;;;;;;;;5113719;28;19993;-78
2023/05/17 13:05:57;;;;;;;;;;;;;;;;;;5114017;28;19955;-78
2023/05/17 13:08:23;;;;;;;;;;;;;;;;;;5095432;28;20397;-77
2023/05/17 13:10:49;;;;;;;;;;;;;;;;;;5095414;28;20057;-79
2023/05/17 13:13:15;;;;;;;;;;;;;;;;;;5113693;28;19981;-78
2023/05/17 13:15:41;;;;;;;;;;;;;;;;;;5114165;28;19954;-78
2023/05/17 13:18:07;;;;;;;;;;;;;;;;;;5114851;28;20048;-78
2023/05/17 13:20:32;;;;;;;;;;;;;;;;;;5118066;28;20326;-78
2023/05/17 13:22:58;;;;;;;;;;;;;;;;;;5117680;28;20045;-76
2023/05/17 13:25:24;;;;;;;;;;;;;;;;;;5117382;28;19955;-76
2023/05/17 13:27:51;;;;;;;;;;;;;;;;;;5117990;28;19955;-75
2023/05/17 13:30:17;;;;;;;;;;;;;;;;;;5117313;28;19955;-72
2023/05/17 13:32:43;;;;;;;;;;;;;;;;;;5117168;28;20396;-73
2023/05/17 13:35:10;;;;;;;;;;;;;;;;;;5117196;28;19959;-72
2023/05/17 13:37:36;;;;;;;;;;;;;;;;;;5117741;28;19962;-72
2023/05/17 13:40:01;;;;;;;;;;;;;;;;;;5116808;28;19990;-71
2023/05/17 13:42:27;;;;;;;;;;;;;;;;;;5117593;28;20357;-71
2023/05/17 13:44:53;;;;;;;;;;;;;;;;;;5117257;28;20004;-72
2023/05/17 13:47:20;;;;;;;;;;;;;;;;;;5098624;28;20340;-71
2023/05/17 13:49:45;;;;;;;;;;;;;;;;;;5117224;28;20009;-75
2023/05/17 13:52:12;;;;;;;;;;;;;;;;;;5117129;28;20416;-76
2023/05/17 13:54:38;;;;;;;;;;;;;;;;;;5117077;28;19954;-74
2023/05/17 13:57:03;;;;;;;;;;;;;;;;;;5116771;28;19954;-71
2023/05/17 13:59:29;;;;;;;;;;;;;;;;;;5116645;28;20047;-71
2023/05/17 14:01:56;;;;;;;;;;;;;;;;;;5116664;28;20057;-71
2023/05/17 14:04:22;;;;;;;;;;;;;;;;;;5116415;28;19959;-70
2023/05/17 14:06:48;;;;;;;;;;;;;;;;;;5116775;28;19955;-71
2023/05/17 14:09:14;;;;;;;;;;;;;;;;;;5116587;28;20038;-71
2023/05/17 14:11:40;;;;;;;;;;;;;;;;;;5116457;28;20033;-71
2023/05/17 14:14:06;;;;;;;;;;;;;;;;;;5116439;28;19955;-70
2023/05/17 14:16:32;;;;;;;;;;;;;;;;;;5116640;28;19978;-71
2023/05/17 14:18:57;;;;;;;;;;;;;;;;;;5116977;28;19975;-70
2023/05/17 14:21:23;;;;;;;;;;;;;;;;;;5116561;28;20045;-70
2023/05/17 14:23:49;;;;;;;;;;;;;;;;;;5116502;28;19959;-70
2023/05/17 14:26:15;;;;;;;;;;;;;;;;;;5116134;28;19955;-71
2023/05/17 14:28:41;;;;;;;;;;;;;;;;;;5114831;28;19955;-71
2023/05/17 14:31:07;;;;;;;;;;;;;;;;;;5116042;28;19978;-71
2023/05/17 14:33:33;;;;;;;;;;;;;;;;;;5115934;28;20420;-70
2023/05/17 14:35:59;;;;;;;;;;;;;;;;;;5116003;28;19959;-70
2023/05/17 14:38:25;;;;;;;;;;;;;;;;;;5116106;28;19962;-72
2023/05/17 14:40:51;;;;;;;;;;;;;;;;;;5115426;28;19990;-70
2023/05/17 14:43:18;;;;;;;;;;;;;;;;;;5115343;28;20326;-72
2023/05/17 14:45:45;;;;;;;;;;;;;;;;;;5114756;28;19962;-71
2023/05/17 14:48:10;;;;;;;;;;;;;;;;;;5114782;28;19958;-71
2023/05/17 14:50:36;;;;;;;;;;;;;;;;;;5114625;28;19961;-71
2023/05/17 14:53:02;;;;;;;;;;;;;;;;;;5114612;28;19955;-71
2023/05/17 14:55:28;;;;;;;;;;;;;;;;;;5114534;28;19955;-71
2023/05/17 14:57:56;;;;;;;;;;;;;;;;;;5115972;28;20039;-71
2023/05/17 15:00:22;;;;;;;;;;;;;;;;;;5115737;28;20470;-71
2023/05/17 15:02:48;;;;;;;;;;;;;;;;;;5115499;28;20001;-71
2023/05/17 15:05:14;;;;;;;;;;;;;;;;;;5115727;28;19961;-71
2023/05/17 15:07:40;;;;;;;;;;;;;;;;;;5115399;28;19959;-71
2023/05/17 15:10:07;;;;;;;;;;;;;;;;;;5115676;28;19955;-71
2023/05/17 15:12:33;;;;;;;;;;;;;;;;;;5115314;28;19962;-71
2023/05/17 15:14:58;;;;;;;;;;;;;;;;;;5115286;28;20339;-71
2023/05/17 15:17:24;;;;;;;;;;;;;;;;;;5115235;28;20474;-71
2023/05/17 15:19:50;;;;;;;;;;;;;;;;;;5115592;28;19975;-70
2023/05/17 15:22:16;;;;;;;;;;;;;;;;;;5115668;28;20313;-71
2023/05/17 15:24:42;;;;;;;;;;;;;;;;;;5096853;28;19963;-71
2023/05/17 15:27:11;;;;;;;;;;;;;;;;;;5115329;28;19954;-71
2023/05/17 15:29:39;;;;;;;;;;;;;;;;;;5114944;28;20438;-70
2023/05/17 15:32:05;;;;;;;;;;;;;;;;;;5114862;28;19971;-71
2023/05/17 15:34:31;;;;;;;;;;;;;;;;;;5114881;28;20060;-71
2023/05/17 15:36:58;;;;;;;;;;;;;;;;;;5115132;28;20097;-71
2023/05/17 15:39:24;;;;;;;;;;;;;;;;;;5096178;28;20535;-71
2023/05/17 15:41:50;;;;;;;;;;;;;;;;;;5114534;28;20056;-71
2023/05/17 15:44:16;;;;;;;;;;;;;;;;;;5114674;28;20000;-71
2023/05/17 15:46:41;;;;;;;;;;;;;;;;;;5114899;28;19990;-71
2023/05/17 15:49:07;;;;;;;;;;;;;;;;;;5114616;28;20024;-71
2023/05/17 15:51:33;;;;;;;;;;;;;;;;;;5115116;28;20461;-71
2023/05/17 15:53:59;;;;;;;;;;;;;;;;;;5114792;28;20153;-70
2023/05/17 15:56:25;;;;;;;;;;;;;;;;;;5115087;28;19962;-71
2023/05/17 15:58:51;;;;;;;;;;;;;;;;;;5114383;28;20069;-71
2023/05/17 16:01:17;;;;;;;;;;;;;;;;;;5114733;28;19993;-71
2023/05/17 16:03:43;;;;;;;;;;;;;;;;;;5114417;28;19998;-71
2023/05/17 16:06:09;;;;;;;;;;;;;;;;;;5114627;28;19966;-71
2023/05/17 16:08:35;;;;;;;;;;;;;;;;;;5114334;28;20007;-71
2023/05/17 16:11:01;;;;;;;;;;;;;;;;;;5114552;28;20043;-71
2023/05/17 16:13:27;;;;;;;;;;;;;;;;;;5114245;28;19955;-71
2023/05/17 16:15:54;;;;;;;;;;;;;;;;;;5114506;28;19959;-71
2023/05/17 16:18:20;;;;;;;;;;;;;;;;;;5114600;28;19945;-71
2023/05/17 16:20:46;;;;;;;;;;;;;;;;;;5114210;28;19954;-70
2023/05/17 16:23:12;;;;;;;;;;;;;;;;;;5114098;28;20367;-71
2023/05/17 16:25:38;;;;;;;;;;;;;;;;;;5114083;28;20333;-71
2023/05/17 16:28:04;;;;;;;;;;;;;;;;;;5114045;28;19955;-71
2023/05/17 16:30:30;;;;;;;;;;;;;;;;;;5114240;28;19959;-71
2023/05/17 16:32:56;;;;;;;;;;;;;;;;;;5114665;28;19998;-71
2023/05/17 16:35:22;;;;;;;;;;;;;;;;;;5114330;28;19962;-71
2023/05/17 16:37:48;;;;;;;;;;;;;;;;;;5114612;28;19956;-71